Forside
METAR-TAF:

METAR-TAF

Lufthavne :

Hagåtña, Guam, USA

Breddekreds: 13-29N, længdekreds: 144-48E, højde: 91 m

Aktuelle vejr

Denne rapport blev lavet for 52 minutter siden, kl. 15:54 UTC
Vind 5 kt fra sydøst
Temperatur 27°C
Fugtighed 94%
Tryk 1011 hPa
Sigt: 16.1 km
skyfri

METAR: PGUM 151554Z 14005KT 10SM CLR 27/26 A2986 RMK AO2 SLP102 T02720261

Tid: 02:46 (16:46 UTC)

Vejrudsigter

Denne rapport blev lavet for 5 timer og 15 minutter siden, kl. 11:31 UTC
Foreløbig gælder fra 15 på 12 UTC til 16 på 18 UTC
Vind 8 kt fra øst
Sigt: 10 km
Spredte skyer i en højde af 1800 ft
Spredte skyer i en højde af 4500 ft
byger i nærheden

TAF: PGUM 151131Z 1512/1618 09008KT P6SM VCSH SCT018 SCT045

Vejrobservationer og prognoser fra mere end 4000 lufthavne (METAR og TAF).

De gule og røde prikker repræsenterer de meteorologiske stationer.

Flyt musen over at se navnet på stationen.

Så klik over at se vejr observationer og prognoser.

At skifte det kort: Klik på de grønne knapper med et sort kors for at zoome ind; på den grønne knap med en bindestreg for at zoome ud; eller på de grønne pile for tilstødende kort.


METAR-TAF: